createdAt,value
2022-09-14T04:44:48.876Z,15.11
2022-09-14T04:48:42.080Z,15.23
2022-09-14T04:52:34.690Z,15.47
2022-09-14T04:56:28.275Z,15.36
2022-09-14T05:00:21.052Z,15.47
2022-09-14T05:04:13.255Z,15.43
2022-09-14T05:08:05.690Z,15.63
2022-09-14T05:11:57.845Z,15.63
2022-09-14T05:15:50.595Z,15.61
2022-09-14T05:19:43.043Z,15.69
2022-09-14T05:23:35.743Z,15.84
2022-09-14T05:27:28.071Z,15.79
2022-09-14T05:31:21.106Z,15.69
2022-09-14T05:35:13.632Z,15.69
2022-09-14T05:39:06.498Z,15.88
2022-09-14T05:42:58.806Z,15.94
2022-09-14T05:46:51.574Z,16.05
2022-09-14T05:50:43.919Z,16.05
2022-09-14T05:54:36.303Z,16.22
2022-09-14T05:58:28.633Z,16.28
2022-09-14T06:02:20.992Z,16.73
2022-09-14T06:06:14.701Z,16.84
2022-09-14T06:10:07.252Z,17.06
2022-09-14T06:13:59.560Z,16.94
2022-09-14T06:17:51.812Z,16.91
2022-09-14T06:21:44.134Z,16.80
2022-09-14T06:25:36.351Z,16.99
2022-09-14T06:29:28.705Z,16.79
2022-09-14T06:33:21.324Z,16.72
2022-09-14T06:37:13.732Z,16.77
2022-09-14T06:41:07.089Z,16.90
2022-09-14T06:44:59.427Z,16.62
2022-09-14T06:48:51.767Z,16.60
2022-09-14T06:52:44.084Z,16.64
2022-09-14T06:56:37.343Z,16.76
2022-09-14T07:00:30.410Z,16.80
2022-09-14T07:04:22.690Z,16.72
2022-09-14T07:08:14.935Z,16.87
2022-09-14T07:12:07.324Z,16.94
2022-09-14T07:15:59.678Z,16.66
2022-09-14T07:19:51.910Z,16.83
2022-09-14T07:23:45.458Z,16.90
2022-09-14T07:27:39.562Z,16.99
2022-09-14T07:31:33.412Z,17.21
2022-09-14T07:35:25.938Z,17.14
2022-09-14T07:39:18.415Z,17.15
2022-09-14T07:43:10.843Z,17.22
2022-09-14T07:47:03.205Z,17.21
2022-09-14T07:51:02.537Z,17.35
2022-09-14T07:54:54.795Z,17.42
2022-09-14T07:58:48.785Z,17.36
2022-09-14T08:02:44.067Z,17.46
2022-09-14T08:06:37.457Z,17.32
2022-09-14T08:10:29.729Z,17.31
2022-09-14T08:14:22.282Z,17.34
2022-09-14T08:18:15.021Z,17.29
2022-09-14T08:22:07.364Z,17.34
2022-09-14T08:26:06.941Z,17.31
2022-09-14T08:29:59.225Z,17.39
2022-09-14T08:33:54.565Z,17.22
2022-09-14T08:37:47.449Z,17.40
2022-09-14T08:41:46.410Z,17.35
2022-09-14T08:45:40.371Z,17.50
2022-09-14T08:49:36.277Z,17.79
2022-09-14T08:53:28.664Z,17.86
2022-09-14T08:57:41.507Z,18.18
2022-09-14T09:01:39.356Z,18.55
2022-09-14T09:05:49.040Z,18.44
2022-09-14T09:09:41.419Z,18.21
2022-09-14T09:13:36.574Z,17.87
2022-09-14T09:17:38.859Z,17.69
2022-09-14T09:21:43.996Z,17.72
2022-09-14T09:25:54.371Z,18.22
2022-09-14T09:29:47.013Z,18.22
2022-09-14T09:33:39.602Z,18.35
2022-09-14T09:37:34.502Z,18.45
2022-09-14T09:41:29.434Z,18.66
2022-09-14T09:45:22.183Z,18.85
2022-09-14T09:49:16.425Z,18.92
2022-09-14T09:53:15.022Z,19.41
2022-09-14T09:57:19.669Z,19.35
2022-09-14T10:01:19.704Z,19.58
2022-09-14T10:05:18.171Z,19.51
2022-09-14T10:09:14.933Z,19.62
2022-09-14T10:13:16.221Z,19.58
2022-09-14T10:17:19.398Z,19.76
2022-09-14T10:21:12.759Z,19.86
2022-09-14T10:25:22.375Z,20.05
2022-09-14T10:29:23.958Z,20.27
2022-09-14T10:33:17.469Z,20.33
2022-09-14T10:37:18.198Z,20.26
2022-09-14T10:41:14.098Z,20.35
2022-09-14T10:45:13.891Z,20.34
2022-09-14T10:49:25.587Z,20.38
2022-09-14T10:53:32.719Z,20.69
2022-09-14T10:57:39.506Z,20.56
2022-09-14T11:01:50.849Z,20.69
2022-09-14T11:05:45.958Z,20.49
2022-09-14T11:09:38.503Z,20.83
2022-09-14T11:13:31.210Z,20.81
2022-09-14T11:17:26.683Z,20.93
2022-09-14T11:21:19.384Z,21.09
2022-09-14T11:25:16.905Z,21.07
2022-09-14T11:29:24.816Z,21.13
2022-09-14T11:33:37.648Z,21.12
2022-09-14T11:37:32.780Z,20.95
2022-09-14T11:41:29.197Z,20.67
2022-09-14T11:45:24.591Z,20.88
2022-09-14T11:49:24.456Z,20.92
2022-09-14T11:53:17.104Z,20.82
2022-09-14T11:57:14.618Z,20.96
2022-09-14T12:01:25.956Z,21.24
2022-09-14T12:05:18.366Z,21.67
2022-09-14T12:09:24.664Z,21.91
2022-09-14T12:13:17.277Z,21.82
2022-09-14T12:17:41.278Z,22.05
2022-09-14T12:21:34.405Z,21.71
2022-09-14T12:25:27.933Z,21.84
2022-09-14T12:29:32.928Z,22.26
2022-09-14T12:33:34.091Z,22.13
2022-09-14T12:37:31.591Z,22.28
2022-09-14T12:41:24.411Z,22.50
2022-09-14T12:45:40.305Z,22.56
2022-09-14T12:49:34.842Z,22.43
2022-09-14T12:53:30.200Z,22.36
2022-09-14T12:57:22.669Z,22.16
2022-09-14T13:01:15.096Z,22.36
2022-09-14T13:05:13.005Z,22.40
2022-09-14T13:09:09.463Z,22.50
2022-09-14T13:13:02.998Z,22.61
2022-09-14T13:16:56.459Z,21.99
2022-09-14T13:20:53.284Z,22.08
2022-09-14T13:24:46.683Z,22.24
2022-09-14T13:28:42.298Z,22.13
2022-09-14T13:32:36.210Z,21.96
2022-09-14T13:36:41.942Z,21.91
2022-09-14T13:40:35.387Z,22.03
2022-09-14T13:44:32.998Z,22.17
2022-09-14T13:48:25.440Z,22.22
2022-09-14T13:52:31.036Z,22.32
2022-09-14T13:56:32.678Z,22.44
2022-09-14T14:00:25.264Z,22.43
2022-09-14T14:04:20.696Z,22.43
2022-09-14T14:08:25.402Z,22.37
2022-09-14T14:12:25.874Z,22.33
2022-09-14T14:16:18.372Z,22.40
2022-09-14T14:20:39.960Z,22.57
2022-09-14T14:24:32.603Z,22.58
2022-09-14T14:28:26.859Z,22.47
2022-09-14T14:32:19.269Z,22.37
2022-09-14T14:36:11.535Z,22.50
2022-09-14T14:40:04.466Z,22.57
2022-09-14T14:43:57.543Z,22.56
2022-09-14T14:47:52.826Z,22.64
2022-09-14T14:51:45.767Z,22.54
2022-09-14T14:55:38.176Z,22.50
2022-09-14T14:59:31.280Z,22.65
2022-09-14T15:03:23.644Z,22.63
2022-09-14T15:07:16.824Z,22.67
2022-09-14T15:11:20.961Z,22.57
2022-09-14T15:15:18.607Z,22.53
2022-09-14T15:19:11.349Z,22.47
2022-09-14T15:23:04.372Z,22.57
2022-09-14T15:26:57.731Z,22.43
2022-09-14T15:30:50.473Z,22.26
2022-09-14T15:34:43.110Z,22.29
2022-09-14T15:38:35.535Z,22.30
2022-09-14T15:42:27.965Z,22.24
2022-09-14T15:46:21.267Z,22.23
2022-09-14T15:50:13.893Z,22.39
2022-09-14T15:54:06.503Z,22.46
2022-09-14T15:57:59.199Z,22.54
2022-09-14T16:01:52.004Z,22.49
2022-09-14T16:05:44.543Z,22.40
2022-09-14T16:09:41.131Z,22.41
2022-09-14T16:13:34.276Z,22.46
2022-09-14T16:17:26.772Z,22.57
2022-09-14T16:21:23.992Z,22.60
2022-09-14T16:25:16.691Z,22.54
2022-09-14T16:29:11.914Z,22.41
2022-09-14T16:33:04.673Z,22.24
2022-09-14T16:36:59.166Z,22.22
2022-09-14T16:40:58.203Z,22.16
2022-09-14T16:44:51.386Z,22.05
2022-09-14T16:48:45.304Z,21.92
2022-09-14T16:52:37.914Z,21.78
2022-09-14T16:56:31.752Z,21.54
2022-09-14T17:00:24.923Z,21.53
2022-09-14T17:04:19.703Z,21.44
2022-09-14T17:08:12.070Z,21.38
2022-09-14T17:12:04.802Z,21.38
2022-09-14T17:16:01.861Z,21.22
2022-09-14T17:19:54.132Z,21.07
2022-09-14T17:23:46.920Z,20.92
2022-09-14T17:27:39.110Z,20.86
2022-09-14T17:31:32.629Z,20.89
2022-09-14T17:35:24.842Z,20.93
2022-09-14T17:39:17.136Z,20.83
2022-09-14T17:43:09.842Z,20.65
2022-09-14T17:47:02.086Z,20.38
2022-09-14T17:50:54.887Z,20.43
2022-09-14T17:54:47.180Z,20.52
2022-09-14T17:58:39.752Z,20.51
2022-09-14T18:02:32.083Z,20.44
2022-09-14T18:06:26.634Z,20.40
2022-09-14T18:10:19.350Z,20.23
2022-09-14T18:14:12.970Z,20.23
2022-09-14T18:18:05.242Z,20.30
2022-09-14T18:21:57.901Z,20.28
2022-09-14T18:25:50.495Z,20.24
2022-09-14T18:29:43.185Z,20.28
2022-09-14T18:33:36.182Z,20.35
2022-09-14T18:37:28.863Z,20.37
2022-09-14T18:41:21.580Z,20.28
2022-09-14T18:45:14.528Z,20.17
2022-09-14T18:49:07.095Z,19.99
2022-09-14T18:52:59.963Z,20.06
2022-09-14T18:56:52.660Z,20.05
2022-09-14T19:00:45.613Z,19.94
2022-09-14T19:04:38.700Z,19.94
2022-09-14T19:08:34.447Z,19.89
2022-09-14T19:12:32.840Z,19.96
2022-09-14T19:16:25.710Z,20.14
2022-09-14T19:20:20.005Z,20.13
2022-09-14T19:24:16.843Z,19.96
2022-09-14T19:28:09.410Z,19.78
2022-09-14T19:32:02.124Z,19.66
2022-09-14T19:35:54.605Z,19.38
2022-09-14T19:39:47.415Z,19.47
2022-09-14T19:44:00.411Z,19.38
2022-09-14T19:47:53.138Z,19.36
2022-09-14T19:51:46.120Z,19.32
2022-09-14T19:55:39.029Z,19.15
2022-09-14T19:59:31.721Z,19.08
2022-09-14T20:03:24.644Z,19.20
2022-09-14T20:07:17.509Z,19.11
2022-09-14T20:11:11.646Z,18.93
2022-09-14T20:15:04.426Z,19.04
2022-09-14T20:18:58.447Z,19.06
2022-09-14T20:22:51.398Z,19.10
2022-09-14T20:26:44.348Z,19.07
2022-09-14T20:30:37.010Z,19.04
2022-09-14T20:34:29.256Z,19.00
2022-09-14T20:38:21.547Z,19.25
2022-09-14T20:42:13.929Z,19.14
2022-09-14T20:46:08.158Z,19.02
2022-09-14T20:50:00.335Z,18.86
2022-09-14T20:53:53.055Z,18.96
2022-09-14T20:57:45.543Z,19.10
